sensor_id;sensor_type;location;lat;lon;timestamp;P1;durP1;ratioP1;P2;durP2;ratioP2
8297;SDS011;4187;42.778;23.242;2023-11-22T00:01:53;14.93;;;9.15;;
8297;SDS011;4187;42.778;23.242;2023-11-22T00:04:20;11.77;;;8.95;;
8297;SDS011;4187;42.778;23.242;2023-11-22T00:06:46;10.32;;;7.85;;
8297;SDS011;4187;42.778;23.242;2023-11-22T00:09:15;16.15;;;10.68;;
8297;SDS011;4187;42.778;23.242;2023-11-22T00:11:47;14.45;;;9.18;;
8297;SDS011;4187;42.778;23.242;2023-11-22T00:14:14;15.80;;;10.52;;
8297;SDS011;4187;42.778;23.242;2023-11-22T00:16:40;13.53;;;8.87;;
8297;SDS011;4187;42.778;23.242;2023-11-22T00:19:08;14.18;;;8.77;;
8297;SDS011;4187;42.778;23.242;2023-11-22T00:21:34;14.98;;;9.32;;
8297;SDS011;4187;42.778;23.242;2023-11-22T00:24:01;13.27;;;10.13;;
8297;SDS011;4187;42.778;23.242;2023-11-22T00:26:31;15.38;;;8.45;;
8297;SDS011;4187;42.778;23.242;2023-11-22T00:28:58;14.10;;;9.57;;
8297;SDS011;4187;42.778;23.242;2023-11-22T00:31:25;13.60;;;10.50;;
8297;SDS011;4187;42.778;23.242;2023-11-22T00:33:52;15.02;;;10.60;;
8297;SDS011;4187;42.778;23.242;2023-11-22T00:36:19;13.38;;;10.38;;
8297;SDS011;4187;42.778;23.242;2023-11-22T00:38:45;16.48;;;10.70;;
8297;SDS011;4187;42.778;23.242;2023-11-22T00:41:12;13.85;;;10.73;;
8297;SDS011;4187;42.778;23.242;2023-11-22T00:43:41;12.20;;;10.27;;
8297;SDS011;4187;42.778;23.242;2023-11-22T00:46:08;16.48;;;11.82;;
8297;SDS011;4187;42.778;23.242;2023-11-22T00:48:35;16.10;;;11.17;;
8297;SDS011;4187;42.778;23.242;2023-11-22T00:51:02;13.80;;;11.07;;
8297;SDS011;4187;42.778;23.242;2023-11-22T00:53:33;15.88;;;11.05;;
8297;SDS011;4187;42.778;23.242;2023-11-22T00:56:01;12.80;;;10.75;;
8297;SDS011;4187;42.778;23.242;2023-11-22T00:58:28;15.05;;;10.93;;
8297;SDS011;4187;42.778;23.242;2023-11-22T01:00:56;15.82;;;12.20;;
8297;SDS011;4187;42.778;23.242;2023-11-22T01:03:22;15.60;;;12.70;;
8297;SDS011;4187;42.778;23.242;2023-11-22T01:05:49;16.98;;;14.32;;
8297;SDS011;4187;42.778;23.242;2023-11-22T01:08:16;17.08;;;13.23;;
8297;SDS011;4187;42.778;23.242;2023-11-22T01:10:44;19.33;;;14.13;;
8297;SDS011;4187;42.778;23.242;2023-11-22T01:13:11;15.55;;;12.70;;
8297;SDS011;4187;42.778;23.242;2023-11-22T01:15:39;22.15;;;15.18;;
8297;SDS011;4187;42.778;23.242;2023-11-22T01:18:08;18.23;;;15.15;;
8297;SDS011;4187;42.778;23.242;2023-11-22T01:20:35;19.98;;;12.90;;
8297;SDS011;4187;42.778;23.242;2023-11-22T01:23:01;12.45;;;11.07;;
8297;SDS011;4187;42.778;23.242;2023-11-22T01:25:28;15.07;;;12.18;;
8297;SDS011;4187;42.778;23.242;2023-11-22T01:27:55;9.60;;;7.72;;
8297;SDS011;4187;42.778;23.242;2023-11-22T01:30:22;12.53;;;9.00;;
8297;SDS011;4187;42.778;23.242;2023-11-22T01:32:49;16.25;;;10.10;;
8297;SDS011;4187;42.778;23.242;2023-11-22T01:35:17;13.05;;;11.55;;
8297;SDS011;4187;42.778;23.242;2023-11-22T01:37:44;13.90;;;11.50;;
8297;SDS011;4187;42.778;23.242;2023-11-22T01:40:11;15.60;;;11.73;;
8297;SDS011;4187;42.778;23.242;2023-11-22T01:42:38;30.17;;;20.00;;
8297;SDS011;4187;42.778;23.242;2023-11-22T01:45:05;17.35;;;13.23;;
8297;SDS011;4187;42.778;23.242;2023-11-22T01:47:33;15.47;;;11.87;;
8297;SDS011;4187;42.778;23.242;2023-11-22T01:50:01;12.70;;;10.20;;
8297;SDS011;4187;42.778;23.242;2023-11-22T01:52:31;11.05;;;9.48;;
8297;SDS011;4187;42.778;23.242;2023-11-22T01:54:58;13.23;;;10.60;;
8297;SDS011;4187;42.778;23.242;2023-11-22T01:57:29;13.35;;;9.60;;
8297;SDS011;4187;42.778;23.242;2023-11-22T01:59:58;11.97;;;9.30;;
8297;SDS011;4187;42.778;23.242;2023-11-22T02:02:26;12.52;;;9.65;;
8297;SDS011;4187;42.778;23.242;2023-11-22T02:04:53;12.47;;;9.20;;
8297;SDS011;4187;42.778;23.242;2023-11-22T02:07:19;11.25;;;10.02;;
8297;SDS011;4187;42.778;23.242;2023-11-22T02:09:48;12.73;;;9.20;;
8297;SDS011;4187;42.778;23.242;2023-11-22T02:12:15;14.88;;;13.00;;
8297;SDS011;4187;42.778;23.242;2023-11-22T02:14:44;13.70;;;10.35;;
8297;SDS011;4187;42.778;23.242;2023-11-22T02:17:11;12.85;;;10.88;;
8297;SDS011;4187;42.778;23.242;2023-11-22T02:19:38;13.20;;;9.57;;
8297;SDS011;4187;42.778;23.242;2023-11-22T02:22:05;13.83;;;10.37;;
8297;SDS011;4187;42.778;23.242;2023-11-22T02:24:33;13.90;;;10.23;;
8297;SDS011;4187;42.778;23.242;2023-11-22T02:27:00;15.27;;;10.40;;
8297;SDS011;4187;42.778;23.242;2023-11-22T02:29:27;14.37;;;10.13;;
8297;SDS011;4187;42.778;23.242;2023-11-22T02:31:54;11.05;;;8.85;;
8297;SDS011;4187;42.778;23.242;2023-11-22T02:34:21;12.23;;;9.52;;
8297;SDS011;4187;42.778;23.242;2023-11-22T02:36:48;10.40;;;9.25;;
8297;SDS011;4187;42.778;23.242;2023-11-22T02:39:15;15.65;;;11.57;;
8297;SDS011;4187;42.778;23.242;2023-11-22T02:41:43;16.20;;;11.05;;
8297;SDS011;4187;42.778;23.242;2023-11-22T02:44:09;15.35;;;10.52;;
8297;SDS011;4187;42.778;23.242;2023-11-22T02:46:40;13.05;;;9.88;;
8297;SDS011;4187;42.778;23.242;2023-11-22T02:49:07;12.27;;;9.60;;
8297;SDS011;4187;42.778;23.242;2023-11-22T02:51:35;12.07;;;9.93;;
8297;SDS011;4187;42.778;23.242;2023-11-22T02:54:02;11.32;;;9.55;;
8297;SDS011;4187;42.778;23.242;2023-11-22T02:56:29;12.40;;;9.03;;
8297;SDS011;4187;42.778;23.242;2023-11-22T02:58:58;10.23;;;9.00;;
8297;SDS011;4187;42.778;23.242;2023-11-22T03:01:24;10.47;;;9.00;;
8297;SDS011;4187;42.778;23.242;2023-11-22T03:03:52;12.03;;;9.93;;
8297;SDS011;4187;42.778;23.242;2023-11-22T03:06:19;11.47;;;9.43;;
8297;SDS011;4187;42.778;23.242;2023-11-22T03:08:45;10.15;;;8.32;;
8297;SDS011;4187;42.778;23.242;2023-11-22T03:11:13;10.97;;;9.67;;
8297;SDS011;4187;42.778;23.242;2023-11-22T03:13:39;10.63;;;8.97;;
8297;SDS011;4187;42.778;23.242;2023-11-22T03:16:08;11.40;;;8.50;;
8297;SDS011;4187;42.778;23.242;2023-11-22T03:18:35;13.60;;;9.17;;
8297;SDS011;4187;42.778;23.242;2023-11-22T03:21:03;11.87;;;9.20;;
8297;SDS011;4187;42.778;23.242;2023-11-22T03:23:30;12.07;;;9.37;;
8297;SDS011;4187;42.778;23.242;2023-11-22T03:25:57;10.33;;;8.30;;
8297;SDS011;4187;42.778;23.242;2023-11-22T03:28:24;13.50;;;9.63;;
8297;SDS011;4187;42.778;23.242;2023-11-22T03:30:51;14.20;;;9.03;;
8297;SDS011;4187;42.778;23.242;2023-11-22T03:33:19;11.50;;;9.57;;
8297;SDS011;4187;42.778;23.242;2023-11-22T03:35:46;10.83;;;8.60;;
8297;SDS011;4187;42.778;23.242;2023-11-22T03:38:13;12.97;;;8.87;;
8297;SDS011;4187;42.778;23.242;2023-11-22T03:40:40;10.10;;;8.67;;
8297;SDS011;4187;42.778;23.242;2023-11-22T03:43:06;12.10;;;9.27;;
8297;SDS011;4187;42.778;23.242;2023-11-22T03:45:35;18.10;;;12.73;;
8297;SDS011;4187;42.778;23.242;2023-11-22T03:48:02;15.70;;;12.57;;
8297;SDS011;4187;42.778;23.242;2023-11-22T03:50:30;13.50;;;9.77;;
8297;SDS011;4187;42.778;23.242;2023-11-22T03:52:57;12.70;;;9.77;;
8297;SDS011;4187;42.778;23.242;2023-11-22T03:55:24;10.00;;;8.47;;
8297;SDS011;4187;42.778;23.242;2023-11-22T03:57:50;12.67;;;9.47;;
8297;SDS011;4187;42.778;23.242;2023-11-22T04:00:18;13.53;;;10.63;;
8297;SDS011;4187;42.778;23.242;2023-11-22T04:02:45;14.50;;;10.70;;
8297;SDS011;4187;42.778;23.242;2023-11-22T04:05:12;12.53;;;9.53;;
8297;SDS011;4187;42.778;23.242;2023-11-22T04:07:40;13.83;;;10.67;;
8297;SDS011;4187;42.778;23.242;2023-11-22T04:10:07;15.40;;;11.40;;
8297;SDS011;4187;42.778;23.242;2023-11-22T04:12:34;13.97;;;10.93;;
8297;SDS011;4187;42.778;23.242;2023-11-22T04:15:02;15.17;;;10.70;;
8297;SDS011;4187;42.778;23.242;2023-11-22T04:17:31;12.40;;;10.60;;
8297;SDS011;4187;42.778;23.242;2023-11-22T04:19:58;15.07;;;10.83;;
8297;SDS011;4187;42.778;23.242;2023-11-22T04:22:24;15.63;;;10.70;;
8297;SDS011;4187;42.778;23.242;2023-11-22T04:24:53;24.03;;;14.07;;
8297;SDS011;4187;42.778;23.242;2023-11-22T04:27:20;17.23;;;11.73;;
8297;SDS011;4187;42.778;23.242;2023-11-22T04:29:47;13.17;;;11.43;;
8297;SDS011;4187;42.778;23.242;2023-11-22T04:32:14;16.33;;;10.00;;
8297;SDS011;4187;42.778;23.242;2023-11-22T04:34:42;12.50;;;9.40;;
8297;SDS011;4187;42.778;23.242;2023-11-22T04:37:09;40.37;;;29.80;;
8297;SDS011;4187;42.778;23.242;2023-11-22T04:39:36;66.87;;;43.20;;
8297;SDS011;4187;42.778;23.242;2023-11-22T04:42:05;44.30;;;29.87;;
8297;SDS011;4187;42.778;23.242;2023-11-22T04:44:31;11.97;;;9.43;;
8297;SDS011;4187;42.778;23.242;2023-11-22T04:46:58;12.00;;;9.10;;
8297;SDS011;4187;42.778;23.242;2023-11-22T04:49:25;10.83;;;8.67;;
8297;SDS011;4187;42.778;23.242;2023-11-22T04:51:52;11.10;;;8.40;;
8297;SDS011;4187;42.778;23.242;2023-11-22T04:54:20;11.63;;;9.17;;
8297;SDS011;4187;42.778;23.242;2023-11-22T04:56:47;39.30;;;22.87;;
8297;SDS011;4187;42.778;23.242;2023-11-22T04:59:15;44.00;;;23.80;;
8297;SDS011;4187;42.778;23.242;2023-11-22T05:01:43;15.70;;;11.90;;
8297;SDS011;4187;42.778;23.242;2023-11-22T05:04:10;13.63;;;9.87;;
8297;SDS011;4187;42.778;23.242;2023-11-22T05:06:37;12.80;;;9.70;;
8297;SDS011;4187;42.778;23.242;2023-11-22T05:09:03;13.67;;;10.90;;
8297;SDS011;4187;42.778;23.242;2023-11-22T05:11:31;15.53;;;11.40;;
8297;SDS011;4187;42.778;23.242;2023-11-22T05:13:58;18.13;;;13.23;;
8297;SDS011;4187;42.778;23.242;2023-11-22T05:16:26;16.80;;;11.60;;
8297;SDS011;4187;42.778;23.242;2023-11-22T05:18:53;15.70;;;12.73;;
8297;SDS011;4187;42.778;23.242;2023-11-22T05:21:20;14.03;;;11.57;;
8297;SDS011;4187;42.778;23.242;2023-11-22T05:23:46;14.20;;;11.27;;
8297;SDS011;4187;42.778;23.242;2023-11-22T05:26:13;10.50;;;8.63;;
8297;SDS011;4187;42.778;23.242;2023-11-22T05:28:40;10.13;;;9.03;;
8297;SDS011;4187;42.778;23.242;2023-11-22T05:31:07;10.77;;;8.93;;
8297;SDS011;4187;42.778;23.242;2023-11-22T05:33:35;15.10;;;12.17;;
8297;SDS011;4187;42.778;23.242;2023-11-22T05:36:02;17.80;;;13.83;;
8297;SDS011;4187;42.778;23.242;2023-11-22T05:38:29;16.60;;;13.97;;
8297;SDS011;4187;42.778;23.242;2023-11-22T05:40:56;10.20;;;8.10;;
8297;SDS011;4187;42.778;23.242;2023-11-22T05:43:23;11.57;;;8.67;;
8297;SDS011;4187;42.778;23.242;2023-11-22T05:45:51;13.20;;;10.07;;
8297;SDS011;4187;42.778;23.242;2023-11-22T05:48:18;13.50;;;8.57;;
8297;SDS011;4187;42.778;23.242;2023-11-22T05:50:47;9.70;;;7.77;;
8297;SDS011;4187;42.778;23.242;2023-11-22T05:53:14;13.50;;;9.50;;
8297;SDS011;4187;42.778;23.242;2023-11-22T05:55:44;15.00;;;11.43;;
8297;SDS011;4187;42.778;23.242;2023-11-22T05:58:11;15.90;;;11.63;;
8297;SDS011;4187;42.778;23.242;2023-11-22T06:00:41;27.43;;;18.40;;
8297;SDS011;4187;42.778;23.242;2023-11-22T06:03:08;31.03;;;20.73;;
8297;SDS011;4187;42.778;23.242;2023-11-22T06:05:35;29.13;;;18.13;;
8297;SDS011;4187;42.778;23.242;2023-11-22T06:08:03;25.20;;;18.40;;
8297;SDS011;4187;42.778;23.242;2023-11-22T06:10:30;21.97;;;16.37;;
8297;SDS011;4187;42.778;23.242;2023-11-22T06:12:57;20.93;;;16.50;;
8297;SDS011;4187;42.778;23.242;2023-11-22T06:15:24;14.73;;;12.80;;
8297;SDS011;4187;42.778;23.242;2023-11-22T06:17:51;15.73;;;12.77;;
8297;SDS011;4187;42.778;23.242;2023-11-22T06:20:18;20.60;;;15.00;;
8297;SDS011;4187;42.778;23.242;2023-11-22T06:22:46;13.13;;;11.52;;
8297;SDS011;4187;42.778;23.242;2023-11-22T06:25:14;12.13;;;10.83;;
8297;SDS011;4187;42.778;23.242;2023-11-22T06:27:41;14.23;;;10.70;;
8297;SDS011;4187;42.778;23.242;2023-11-22T06:30:08;16.20;;;11.13;;
8297;SDS011;4187;42.778;23.242;2023-11-22T06:32:36;14.23;;;10.83;;
8297;SDS011;4187;42.778;23.242;2023-11-22T06:35:02;19.77;;;15.50;;
8297;SDS011;4187;42.778;23.242;2023-11-22T06:37:31;16.00;;;12.27;;
8297;SDS011;4187;42.778;23.242;2023-11-22T06:39:58;13.27;;;11.37;;
8297;SDS011;4187;42.778;23.242;2023-11-22T06:42:26;12.80;;;10.27;;
8297;SDS011;4187;42.778;23.242;2023-11-22T06:44:53;15.23;;;11.43;;
8297;SDS011;4187;42.778;23.242;2023-11-22T06:47:25;13.93;;;10.80;;
8297;SDS011;4187;42.778;23.242;2023-11-22T06:49:52;28.80;;;20.67;;
8297;SDS011;4187;42.778;23.242;2023-11-22T06:52:19;18.73;;;14.10;;
8297;SDS011;4187;42.778;23.242;2023-11-22T06:54:46;14.60;;;12.90;;
8297;SDS011;4187;42.778;23.242;2023-11-22T06:57:12;13.73;;;12.17;;
8297;SDS011;4187;42.778;23.242;2023-11-22T06:59:41;15.55;;;12.00;;
8297;SDS011;4187;42.778;23.242;2023-11-22T07:02:08;10.95;;;9.70;;
8297;SDS011;4187;42.778;23.242;2023-11-22T07:04:34;14.70;;;9.55;;
8297;SDS011;4187;42.778;23.242;2023-11-22T07:07:02;14.85;;;9.68;;
8297;SDS011;4187;42.778;23.242;2023-11-22T07:09:29;14.70;;;10.63;;
8297;SDS011;4187;42.778;23.242;2023-11-22T07:11:56;20.85;;;16.50;;
8297;SDS011;4187;42.778;23.242;2023-11-22T07:14:24;31.95;;;28.00;;
8297;SDS011;4187;42.778;23.242;2023-11-22T07:16:53;50.50;;;28.10;;
8297;SDS011;4187;42.778;23.242;2023-11-22T07:19:20;43.75;;;29.67;;
8297;SDS011;4187;42.778;23.242;2023-11-22T07:21:48;24.60;;;17.20;;
8297;SDS011;4187;42.778;23.242;2023-11-22T07:24:15;37.38;;;27.20;;
8297;SDS011;4187;42.778;23.242;2023-11-22T07:26:43;41.55;;;30.88;;
8297;SDS011;4187;42.778;23.242;2023-11-22T07:29:10;35.90;;;27.42;;
8297;SDS011;4187;42.778;23.242;2023-11-22T07:31:37;31.25;;;20.15;;
8297;SDS011;4187;42.778;23.242;2023-11-22T07:34:06;21.87;;;17.20;;
8297;SDS011;4187;42.778;23.242;2023-11-22T07:36:34;21.33;;;17.23;;
8297;SDS011;4187;42.778;23.242;2023-11-22T07:39:03;19.77;;;15.10;;
8297;SDS011;4187;42.778;23.242;2023-11-22T07:41:30;16.67;;;13.15;;
8297;SDS011;4187;42.778;23.242;2023-11-22T07:44:00;15.30;;;13.15;;
8297;SDS011;4187;42.778;23.242;2023-11-22T07:46:26;16.67;;;13.10;;
8297;SDS011;4187;42.778;23.242;2023-11-22T07:48:53;18.42;;;13.45;;
8297;SDS011;4187;42.778;23.242;2023-11-22T07:51:21;19.35;;;12.48;;
8297;SDS011;4187;42.778;23.242;2023-11-22T07:53:49;17.67;;;15.77;;
8297;SDS011;4187;42.778;23.242;2023-11-22T07:56:16;17.58;;;14.10;;
8297;SDS011;4187;42.778;23.242;2023-11-22T07:58:43;16.13;;;12.98;;
8297;SDS011;4187;42.778;23.242;2023-11-22T08:01:10;28.92;;;20.80;;
8297;SDS011;4187;42.778;23.242;2023-11-22T08:03:38;21.35;;;15.18;;
8297;SDS011;4187;42.778;23.242;2023-11-22T08:06:09;16.33;;;13.75;;
8297;SDS011;4187;42.778;23.242;2023-11-22T08:08:37;15.52;;;13.02;;
8297;SDS011;4187;42.778;23.242;2023-11-22T08:11:04;20.63;;;14.90;;
8297;SDS011;4187;42.778;23.242;2023-11-22T08:13:39;69.40;;;39.42;;
8297;SDS011;4187;42.778;23.242;2023-11-22T08:16:08;48.40;;;32.75;;
8297;SDS011;4187;42.778;23.242;2023-11-22T08:18:34;33.72;;;23.50;;
8297;SDS011;4187;42.778;23.242;2023-11-22T08:21:01;48.95;;;30.77;;
8297;SDS011;4187;42.778;23.242;2023-11-22T08:23:29;103.57;;;60.10;;
8297;SDS011;4187;42.778;23.242;2023-11-22T08:25:58;66.10;;;39.88;;
8297;SDS011;4187;42.778;23.242;2023-11-22T08:28:25;32.38;;;24.25;;
8297;SDS011;4187;42.778;23.242;2023-11-22T08:30:52;26.08;;;21.05;;
8297;SDS011;4187;42.778;23.242;2023-11-22T08:33:19;20.95;;;16.52;;
8297;SDS011;4187;42.778;23.242;2023-11-22T08:35:47;18.52;;;15.50;;
8297;SDS011;4187;42.778;23.242;2023-11-22T08:38:23;19.48;;;16.23;;
8297;SDS011;4187;42.778;23.242;2023-11-22T08:40:51;19.73;;;17.63;;
8297;SDS011;4187;42.778;23.242;2023-11-22T08:43:22;21.77;;;16.63;;
8297;SDS011;4187;42.778;23.242;2023-11-22T08:45:52;20.15;;;18.05;;
8297;SDS011;4187;42.778;23.242;2023-11-22T08:48:21;18.50;;;15.40;;
8297;SDS011;4187;42.778;23.242;2023-11-22T08:50:51;19.38;;;17.30;;
8297;SDS011;4187;42.778;23.242;2023-11-22T08:53:21;21.60;;;16.90;;
8297;SDS011;4187;42.778;23.242;2023-11-22T08:55:48;20.98;;;17.35;;
8297;SDS011;4187;42.778;23.242;2023-11-22T08:58:17;22.33;;;17.45;;
8297;SDS011;4187;42.778;23.242;2023-11-22T09:00:48;22.42;;;18.30;;
8297;SDS011;4187;42.778;23.242;2023-11-22T09:03:15;25.98;;;18.60;;
8297;SDS011;4187;42.778;23.242;2023-11-22T09:05:42;22.50;;;17.73;;
8297;SDS011;4187;42.778;23.242;2023-11-22T09:08:12;22.83;;;16.98;;
8297;SDS011;4187;42.778;23.242;2023-11-22T09:10:40;21.80;;;17.67;;
8297;SDS011;4187;42.778;23.242;2023-11-22T09:13:09;21.10;;;16.83;;
8297;SDS011;4187;42.778;23.242;2023-11-22T09:15:37;18.08;;;14.90;;
8297;SDS011;4187;42.778;23.242;2023-11-22T09:18:08;17.20;;;13.35;;
8297;SDS011;4187;42.778;23.242;2023-11-22T09:20:35;18.20;;;13.50;;
8297;SDS011;4187;42.778;23.242;2023-11-22T09:23:01;20.58;;;12.90;;
8297;SDS011;4187;42.778;23.242;2023-11-22T09:25:30;17.20;;;13.15;;
8297;SDS011;4187;42.778;23.242;2023-11-22T09:27:59;13.52;;;10.93;;
8297;SDS011;4187;42.778;23.242;2023-11-22T09:30:27;13.65;;;11.32;;
8297;SDS011;4187;42.778;23.242;2023-11-22T09:33:03;15.85;;;11.43;;
8297;SDS011;4187;42.778;23.242;2023-11-22T09:35:33;11.77;;;10.48;;
8297;SDS011;4187;42.778;23.242;2023-11-22T09:38:01;15.98;;;10.48;;
8297;SDS011;4187;42.778;23.242;2023-11-22T09:40:30;13.13;;;10.45;;
8297;SDS011;4187;42.778;23.242;2023-11-22T09:42:58;12.90;;;10.07;;
8297;SDS011;4187;42.778;23.242;2023-11-22T09:45:27;16.58;;;11.63;;
8297;SDS011;4187;42.778;23.242;2023-11-22T09:47:54;16.85;;;11.57;;
8297;SDS011;4187;42.778;23.242;2023-11-22T09:50:23;15.75;;;10.88;;
8297;SDS011;4187;42.778;23.242;2023-11-22T09:52:59;14.68;;;10.95;;
8297;SDS011;4187;42.778;23.242;2023-11-22T09:55:27;16.08;;;11.73;;
8297;SDS011;4187;42.778;23.242;2023-11-22T09:57:55;11.57;;;10.15;;
8297;SDS011;4187;42.778;23.242;2023-11-22T10:00:24;13.80;;;11.35;;
8297;SDS011;4187;42.778;23.242;2023-11-22T10:02:55;16.70;;;12.32;;
8297;SDS011;4187;42.778;23.242;2023-11-22T10:05:22;14.18;;;9.55;;
8297;SDS011;4187;42.778;23.242;2023-11-22T10:07:49;11.45;;;10.15;;
8297;SDS011;4187;42.778;23.242;2023-11-22T10:10:18;13.38;;;9.93;;
8297;SDS011;4187;42.778;23.242;2023-11-22T10:12:47;18.38;;;12.48;;
8297;SDS011;4187;42.778;23.242;2023-11-22T10:15:15;15.25;;;10.52;;
8297;SDS011;4187;42.778;23.242;2023-11-22T10:17:47;10.43;;;9.27;;
8297;SDS011;4187;42.778;23.242;2023-11-22T10:20:23;14.27;;;11.82;;
8297;SDS011;4187;42.778;23.242;2023-11-22T10:22:51;15.73;;;12.43;;
8297;SDS011;4187;42.778;23.242;2023-11-22T10:25:20;14.30;;;12.23;;
8297;SDS011;4187;42.778;23.242;2023-11-22T10:27:48;15.75;;;11.93;;
8297;SDS011;4187;42.778;23.242;2023-11-22T10:30:16;16.10;;;10.82;;
8297;SDS011;4187;42.778;23.242;2023-11-22T10:32:43;14.13;;;11.02;;
8297;SDS011;4187;42.778;23.242;2023-11-22T10:35:11;18.80;;;11.35;;
8297;SDS011;4187;42.778;23.242;2023-11-22T10:37:39;19.67;;;14.43;;
8297;SDS011;4187;42.778;23.242;2023-11-22T10:40:10;20.25;;;17.67;;
8297;SDS011;4187;42.778;23.242;2023-11-22T10:42:41;15.73;;;13.45;;
8297;SDS011;4187;42.778;23.242;2023-11-22T10:45:09;18.90;;;14.00;;
8297;SDS011;4187;42.778;23.242;2023-11-22T10:47:37;20.50;;;18.30;;
8297;SDS011;4187;42.778;23.242;2023-11-22T10:50:07;24.48;;;21.70;;
8297;SDS011;4187;42.778;23.242;2023-11-22T10:52:37;22.05;;;18.55;;
8297;SDS011;4187;42.778;23.242;2023-11-22T10:55:08;20.38;;;14.52;;
8297;SDS011;4187;42.778;23.242;2023-11-22T10:57:43;20.63;;;14.35;;
8297;SDS011;4187;42.778;23.242;2023-11-22T11:00:13;24.80;;;17.77;;
8297;SDS011;4187;42.778;23.242;2023-11-22T11:02:44;23.50;;;18.15;;
8297;SDS011;4187;42.778;23.242;2023-11-22T11:05:15;28.50;;;20.02;;
8297;SDS011;4187;42.778;23.242;2023-11-22T11:07:48;28.02;;;20.80;;
8297;SDS011;4187;42.778;23.242;2023-11-22T11:10:17;22.70;;;19.50;;
8297;SDS011;4187;42.778;23.242;2023-11-22T11:12:49;30.27;;;24.10;;
8297;SDS011;4187;42.778;23.242;2023-11-22T11:15:16;23.45;;;18.67;;
8297;SDS011;4187;42.778;23.242;2023-11-22T11:17:44;20.25;;;17.23;;
8297;SDS011;4187;42.778;23.242;2023-11-22T11:20:15;20.38;;;16.40;;
8297;SDS011;4187;42.778;23.242;2023-11-22T11:22:46;13.70;;;11.95;;
8297;SDS011;4187;42.778;23.242;2023-11-22T11:25:13;15.15;;;12.48;;
8297;SDS011;4187;42.778;23.242;2023-11-22T11:27:44;13.23;;;10.10;;
8297;SDS011;4187;42.778;23.242;2023-11-22T11:33:13;14.55;;;12.40;;
8297;SDS011;4187;42.778;23.242;2023-11-22T11:35:42;16.00;;;13.23;;
8297;SDS011;4187;42.778;23.242;2023-11-22T11:38:12;14.07;;;11.48;;
8297;SDS011;4187;42.778;23.242;2023-11-22T11:40:40;15.32;;;11.95;;
8297;SDS011;4187;42.778;23.242;2023-11-22T11:43:08;15.93;;;12.13;;
8297;SDS011;4187;42.778;23.242;2023-11-22T11:45:36;15.52;;;12.02;;
8297;SDS011;4187;42.778;23.242;2023-11-22T11:48:05;16.10;;;13.70;;
8297;SDS011;4187;42.778;23.242;2023-11-22T11:50:34;14.38;;;12.80;;
8297;SDS011;4187;42.778;23.242;2023-11-22T11:53:01;14.50;;;12.93;;
8297;SDS011;4187;42.778;23.242;2023-11-22T11:55:29;19.45;;;14.25;;
8297;SDS011;4187;42.778;23.242;2023-11-22T11:57:56;15.30;;;13.25;;
8297;SDS011;4187;42.778;23.242;2023-11-22T12:00:30;18.42;;;14.23;;
8297;SDS011;4187;42.778;23.242;2023-11-22T12:02:57;16.77;;;13.77;;
8297;SDS011;4187;42.778;23.242;2023-11-22T12:05:24;20.58;;;14.23;;
8297;SDS011;4187;42.778;23.242;2023-11-22T12:07:54;21.83;;;15.23;;
8297;SDS011;4187;42.778;23.242;2023-11-22T12:10:21;20.77;;;16.33;;
8297;SDS011;4187;42.778;23.242;2023-11-22T12:12:49;17.55;;;12.82;;
8297;SDS011;4187;42.778;23.242;2023-11-22T12:15:17;15.68;;;13.73;;
8297;SDS011;4187;42.778;23.242;2023-11-22T12:17:44;17.48;;;11.90;;
8297;SDS011;4187;42.778;23.242;2023-11-22T12:20:11;15.27;;;12.50;;
8297;SDS011;4187;42.778;23.242;2023-11-22T12:22:42;15.57;;;12.18;;
8297;SDS011;4187;42.778;23.242;2023-11-22T12:25:11;13.15;;;11.23;;
8297;SDS011;4187;42.778;23.242;2023-11-22T12:27:39;19.25;;;13.35;;
8297;SDS011;4187;42.778;23.242;2023-11-22T12:30:07;15.48;;;12.43;;
8297;SDS011;4187;42.778;23.242;2023-11-22T12:32:38;17.15;;;13.70;;
8297;SDS011;4187;42.778;23.242;2023-11-22T12:35:06;10.88;;;9.73;;
8297;SDS011;4187;42.778;23.242;2023-11-22T12:37:37;15.02;;;13.05;;
8297;SDS011;4187;42.778;23.242;2023-11-22T12:40:07;17.95;;;12.32;;
8297;SDS011;4187;42.778;23.242;2023-11-22T12:42:46;20.45;;;13.68;;
8297;SDS011;4187;42.778;23.242;2023-11-22T12:45:20;16.58;;;14.85;;
8297;SDS011;4187;42.778;23.242;2023-11-22T12:47:49;16.83;;;14.68;;
8297;SDS011;4187;42.778;23.242;2023-11-22T12:50:32;17.40;;;13.25;;
8297;SDS011;4187;42.778;23.242;2023-11-22T12:53:07;17.25;;;14.55;;
8297;SDS011;4187;42.778;23.242;2023-11-22T12:55:37;17.40;;;13.95;;
8297;SDS011;4187;42.778;23.242;2023-11-22T12:58:05;27.65;;;16.02;;
8297;SDS011;4187;42.778;23.242;2023-11-22T13:00:32;18.15;;;13.32;;
8297;SDS011;4187;42.778;23.242;2023-11-22T13:02:59;18.65;;;14.82;;
8297;SDS011;4187;42.778;23.242;2023-11-22T13:05:26;16.95;;;14.30;;
8297;SDS011;4187;42.778;23.242;2023-11-22T13:07:53;16.92;;;14.18;;
8297;SDS011;4187;42.778;23.242;2023-11-22T13:10:20;19.85;;;15.40;;
8297;SDS011;4187;42.778;23.242;2023-11-22T13:12:52;17.83;;;13.70;;
8297;SDS011;4187;42.778;23.242;2023-11-22T13:15:20;18.13;;;14.35;;
8297;SDS011;4187;42.778;23.242;2023-11-22T13:17:49;19.00;;;15.88;;
8297;SDS011;4187;42.778;23.242;2023-11-22T13:20:20;19.73;;;17.13;;
8297;SDS011;4187;42.778;23.242;2023-11-22T13:22:48;21.33;;;17.77;;
8297;SDS011;4187;42.778;23.242;2023-11-22T13:25:15;30.50;;;21.42;;
8297;SDS011;4187;42.778;23.242;2023-11-22T13:27:44;27.02;;;22.17;;
8297;SDS011;4187;42.778;23.242;2023-11-22T13:30:13;26.65;;;20.88;;
8297;SDS011;4187;42.778;23.242;2023-11-22T13:32:40;29.17;;;24.20;;
8297;SDS011;4187;42.778;23.242;2023-11-22T13:35:08;26.50;;;21.90;;
8297;SDS011;4187;42.778;23.242;2023-11-22T13:37:40;28.40;;;22.23;;
8297;SDS011;4187;42.778;23.242;2023-11-22T13:40:09;28.23;;;23.45;;
8297;SDS011;4187;42.778;23.242;2023-11-22T13:42:39;25.80;;;21.13;;
8297;SDS011;4187;42.778;23.242;2023-11-22T13:45:08;21.90;;;19.00;;
8297;SDS011;4187;42.778;23.242;2023-11-22T13:47:37;24.27;;;19.95;;
8297;SDS011;4187;42.778;23.242;2023-11-22T13:50:04;28.63;;;22.30;;
8297;SDS011;4187;42.778;23.242;2023-11-22T13:52:33;20.80;;;17.73;;
8297;SDS011;4187;42.778;23.242;2023-11-22T13:55:00;18.15;;;15.75;;
8297;SDS011;4187;42.778;23.242;2023-11-22T13:57:30;16.75;;;14.35;;
8297;SDS011;4187;42.778;23.242;2023-11-22T13:59:57;15.85;;;13.43;;
8297;SDS011;4187;42.778;23.242;2023-11-22T14:02:24;22.45;;;18.00;;
8297;SDS011;4187;42.778;23.242;2023-11-22T14:04:52;16.63;;;14.88;;
8297;SDS011;4187;42.778;23.242;2023-11-22T14:07:19;18.77;;;15.27;;
8297;SDS011;4187;42.778;23.242;2023-11-22T14:09:46;20.23;;;15.75;;
8297;SDS011;4187;42.778;23.242;2023-11-22T14:12:13;23.52;;;15.68;;
8297;SDS011;4187;42.778;23.242;2023-11-22T14:14:39;20.70;;;14.25;;
8297;SDS011;4187;42.778;23.242;2023-11-22T14:17:06;18.38;;;13.38;;
8297;SDS011;4187;42.778;23.242;2023-11-22T14:19:33;18.80;;;15.13;;
8297;SDS011;4187;42.778;23.242;2023-11-22T14:22:01;20.40;;;14.63;;
8297;SDS011;4187;42.778;23.242;2023-11-22T14:24:28;20.70;;;15.50;;
8297;SDS011;4187;42.778;23.242;2023-11-22T14:26:55;16.17;;;13.75;;
8297;SDS011;4187;42.778;23.242;2023-11-22T14:29:25;14.48;;;12.13;;
8297;SDS011;4187;42.778;23.242;2023-11-22T14:31:52;14.55;;;11.45;;
8297;SDS011;4187;42.778;23.242;2023-11-22T14:34:19;18.60;;;13.63;;
8297;SDS011;4187;42.778;23.242;2023-11-22T14:36:46;34.75;;;23.85;;
8297;SDS011;4187;42.778;23.242;2023-11-22T14:39:14;27.58;;;22.88;;
8297;SDS011;4187;42.778;23.242;2023-11-22T14:41:41;24.92;;;17.65;;
8297;SDS011;4187;42.778;23.242;2023-11-22T14:44:10;30.67;;;22.27;;
8297;SDS011;4187;42.778;23.242;2023-11-22T14:46:37;22.95;;;18.77;;